createdAt,value
2023-05-14T00:00:31.926Z,13.10
2023-05-14T00:02:58.875Z,13.10
2023-05-14T00:05:25.886Z,13.10
2023-05-14T00:07:52.675Z,13.10
2023-05-14T00:10:21.897Z,13.10
2023-05-14T00:12:48.983Z,13.10
2023-05-14T00:15:15.738Z,13.10
2023-05-14T00:17:42.658Z,13.10
2023-05-14T00:20:12.090Z,13.00
2023-05-14T00:22:40.183Z,12.90
2023-05-14T00:25:07.818Z,12.90
2023-05-14T00:27:35.269Z,12.90
2023-05-14T00:30:02.776Z,12.90
2023-05-14T00:32:29.631Z,12.90
2023-05-14T00:34:56.387Z,12.90
2023-05-14T00:37:23.093Z,12.90
2023-05-14T00:39:49.790Z,12.90
2023-05-14T00:42:16.503Z,12.90
2023-05-14T00:44:43.216Z,12.90
2023-05-14T00:47:10.077Z,12.90
2023-05-14T00:49:37.034Z,12.80
2023-05-14T00:52:04.060Z,12.90
2023-05-14T00:54:30.934Z,12.90
2023-05-14T00:56:58.290Z,12.90
2023-05-14T00:59:25.606Z,12.80
2023-05-14T01:01:52.626Z,12.80
2023-05-14T01:04:19.432Z,12.80
2023-05-14T01:06:46.064Z,12.80
2023-05-14T01:09:50.127Z,12.80
2023-05-14T01:12:33.415Z,12.80
2023-05-14T01:15:09.263Z,12.70
2023-05-14T01:17:42.850Z,12.70
2023-05-14T01:20:10.636Z,12.60
2023-05-14T01:22:37.899Z,12.60
2023-05-14T01:25:06.181Z,12.60
2023-05-14T01:28:01.769Z,12.50
2023-05-14T01:30:37.453Z,12.50
2023-05-14T01:33:09.951Z,12.50
2023-05-14T01:35:37.317Z,12.50
2023-05-14T01:38:07.711Z,12.40
2023-05-14T01:40:37.092Z,12.40
2023-05-14T01:43:04.944Z,12.40
2023-05-14T01:45:34.759Z,12.40
2023-05-14T01:48:01.537Z,12.30
2023-05-14T01:50:28.338Z,12.30
2023-05-14T01:52:56.530Z,12.20
2023-05-14T01:55:24.571Z,12.20
2023-05-14T01:57:52.392Z,12.20
2023-05-14T02:00:19.956Z,12.20
2023-05-14T02:02:46.881Z,12.20
2023-05-14T02:05:13.802Z,12.20
2023-05-14T02:07:40.541Z,12.20
2023-05-14T02:10:08.010Z,12.20
2023-05-14T02:12:34.826Z,12.30
2023-05-14T02:15:01.964Z,12.20
2023-05-14T02:17:28.652Z,12.30
2023-05-14T02:19:55.462Z,12.30
2023-05-14T02:22:22.133Z,12.30
2023-05-14T02:24:49.750Z,12.30
2023-05-14T02:27:16.538Z,12.30
2023-05-14T02:29:43.226Z,12.30
2023-05-14T02:32:10.087Z,12.40
2023-05-14T02:34:36.854Z,12.40
2023-05-14T02:37:03.851Z,12.40
2023-05-14T02:39:30.810Z,12.50
2023-05-14T02:41:57.551Z,12.50
2023-05-14T02:44:24.290Z,12.50
2023-05-14T02:46:52.043Z,12.50
2023-05-14T02:49:18.795Z,12.50
2023-05-14T02:51:45.606Z,12.50
2023-05-14T02:54:12.285Z,12.60
2023-05-14T02:56:39.028Z,12.60
2023-05-14T02:59:05.733Z,12.60
2023-05-14T03:01:32.840Z,12.60
2023-05-14T03:03:59.954Z,12.70
2023-05-14T03:06:26.699Z,12.70
2023-05-14T03:08:53.439Z,12.70
2023-05-14T03:11:20.662Z,12.70
2023-05-14T03:13:47.379Z,12.80
2023-05-14T03:16:14.114Z,12.80
2023-05-14T03:18:40.969Z,12.80
2023-05-14T03:21:09.038Z,12.80
2023-05-14T03:23:35.973Z,12.80
2023-05-14T03:26:03.704Z,12.80
2023-05-14T03:28:30.820Z,12.90
2023-05-14T03:30:57.669Z,12.90
2023-05-14T03:33:24.507Z,12.90
2023-05-14T03:35:51.885Z,12.90
2023-05-14T03:38:18.769Z,12.90
2023-05-14T03:40:45.689Z,13.00
2023-05-14T03:43:12.439Z,13.00
2023-05-14T03:45:39.197Z,13.10
2023-05-14T03:48:06.402Z,13.10
2023-05-14T03:50:33.214Z,13.00
2023-05-14T03:53:00.062Z,13.10
2023-05-14T03:55:26.798Z,13.10
2023-05-14T03:57:53.557Z,13.00
2023-05-14T04:00:21.300Z,13.00
2023-05-14T04:02:48.210Z,13.00
2023-05-14T04:05:14.942Z,12.90
2023-05-14T04:07:41.667Z,12.90
2023-05-14T04:10:08.925Z,12.80
2023-05-14T04:12:35.675Z,12.80
2023-05-14T04:15:02.456Z,12.80
2023-05-14T04:17:29.164Z,12.70
2023-05-14T04:19:55.949Z,12.60
2023-05-14T04:22:22.626Z,12.60
2023-05-14T04:24:50.586Z,12.60
2023-05-14T04:27:23.778Z,12.60
2023-05-14T04:29:50.811Z,12.60
2023-05-14T04:32:18.251Z,12.60
2023-05-14T04:34:45.091Z,12.60
2023-05-14T04:37:11.900Z,12.60
2023-05-14T04:39:38.880Z,12.70
2023-05-14T04:42:06.811Z,12.80
2023-05-14T04:44:35.274Z,12.80
2023-05-14T04:47:02.655Z,12.90
2023-05-14T04:49:30.298Z,13.00
2023-05-14T04:51:57.089Z,13.10
2023-05-14T04:54:24.082Z,13.20
2023-05-14T04:56:51.307Z,13.30
2023-05-14T04:59:18.100Z,13.40
2023-05-14T05:01:45.774Z,13.50
2023-05-14T05:04:13.089Z,13.60
2023-05-14T05:06:40.111Z,13.70
2023-05-14T05:09:06.910Z,13.80
2023-05-14T05:11:33.644Z,13.90
2023-05-14T05:14:00.428Z,14.00
2023-05-14T05:16:27.456Z,14.00
2023-05-14T05:18:54.297Z,14.00
2023-05-14T05:21:21.112Z,14.00
2023-05-14T05:23:47.851Z,14.00
2023-05-14T05:26:14.533Z,13.90
2023-05-14T05:28:41.202Z,13.90
2023-05-14T05:31:08.196Z,13.90
2023-05-14T05:33:35.757Z,13.80
2023-05-14T05:36:02.853Z,13.80
2023-05-14T05:38:29.662Z,13.90
2023-05-14T05:40:56.531Z,13.90
2023-05-14T05:43:23.285Z,13.90
2023-05-14T05:45:49.992Z,13.90
2023-05-14T05:48:16.942Z,14.00
2023-05-14T05:50:44.822Z,14.10
2023-05-14T05:53:12.431Z,14.10
2023-05-14T05:55:40.848Z,14.20
2023-05-14T05:58:07.781Z,14.30
2023-05-14T06:00:34.849Z,14.40
2023-05-14T06:03:01.638Z,14.50
2023-05-14T06:05:28.503Z,14.50
2023-05-14T06:07:55.256Z,14.70
2023-05-14T06:10:22.180Z,14.70
2023-05-14T06:12:49.011Z,14.80
2023-05-14T06:15:15.802Z,14.90
2023-05-14T06:17:42.615Z,15.00
2023-05-14T06:20:09.943Z,15.20
2023-05-14T06:22:36.833Z,15.30
2023-05-14T06:25:04.410Z,15.40
2023-05-14T06:27:31.122Z,15.50
2023-05-14T06:29:58.002Z,15.50
2023-05-14T06:32:24.846Z,15.50
2023-05-14T06:34:51.570Z,15.50
2023-05-14T06:37:18.296Z,15.60
2023-05-14T06:39:50.001Z,15.70
2023-05-14T06:42:17.518Z,15.90
2023-05-14T06:44:45.237Z,16.00
2023-05-14T06:47:12.127Z,16.10
2023-05-14T06:49:39.281Z,16.20
2023-05-14T06:52:06.529Z,16.40
2023-05-14T06:54:33.325Z,16.40
2023-05-14T06:57:00.020Z,16.50
2023-05-14T06:59:26.756Z,16.60
2023-05-14T07:01:53.643Z,16.60
2023-05-14T07:04:20.663Z,16.60
2023-05-14T07:06:47.468Z,16.70
2023-05-14T07:09:14.383Z,16.80
2023-05-14T07:11:41.125Z,16.90
2023-05-14T07:14:07.870Z,17.10
2023-05-14T07:16:34.675Z,17.20
2023-05-14T07:19:01.417Z,17.30
2023-05-14T07:21:28.228Z,17.40
2023-05-14T07:23:54.957Z,17.40
2023-05-14T07:26:24.565Z,17.40
2023-05-14T07:28:51.408Z,17.50
2023-05-14T07:31:18.295Z,17.60
2023-05-14T07:33:45.230Z,17.80
2023-05-14T07:36:12.108Z,18.00
2023-05-14T07:38:39.006Z,18.10
2023-05-14T07:41:05.785Z,18.10
2023-05-14T07:43:32.715Z,18.10
2023-05-14T07:45:59.512Z,18.30
2023-05-14T07:48:26.337Z,18.40
2023-05-14T07:50:53.850Z,18.40
2023-05-14T07:53:20.632Z,18.40
2023-05-14T07:55:49.472Z,18.50
2023-05-14T07:58:16.683Z,18.60
2023-05-14T08:00:43.526Z,18.70
2023-05-14T08:03:10.366Z,18.80
2023-05-14T08:05:37.234Z,19.10
2023-05-14T08:08:04.117Z,19.30
2023-05-14T08:10:31.115Z,19.40
2023-05-14T08:12:57.926Z,19.40
2023-05-14T08:15:27.603Z,19.30
2023-05-14T08:17:54.884Z,19.20
2023-05-14T08:20:22.208Z,19.30
2023-05-14T08:22:49.158Z,19.40
2023-05-14T08:25:16.055Z,19.60
2023-05-14T08:27:42.829Z,19.80
2023-05-14T08:30:09.880Z,19.80
2023-05-14T08:32:38.468Z,20.00
2023-05-14T08:35:05.872Z,20.00
2023-05-14T08:37:32.698Z,20.10
2023-05-14T08:40:00.671Z,20.00
2023-05-14T08:42:29.244Z,20.20
2023-05-14T08:45:03.822Z,20.20
2023-05-14T08:47:31.086Z,20.40
2023-05-14T08:50:08.298Z,20.50
2023-05-14T08:52:35.516Z,20.80
2023-05-14T08:55:06.854Z,20.90
2023-05-14T08:57:34.480Z,20.80
2023-05-14T09:00:02.601Z,20.90
2023-05-14T09:02:31.288Z,20.90
2023-05-14T09:04:59.684Z,21.00
2023-05-14T09:07:27.027Z,21.30
2023-05-14T09:09:54.563Z,21.30
2023-05-14T09:12:22.151Z,21.50
2023-05-14T09:14:50.013Z,21.50
2023-05-14T09:17:17.964Z,21.20
2023-05-14T09:19:49.053Z,21.10
2023-05-14T09:22:17.669Z,21.20
2023-05-14T09:24:45.010Z,21.40
2023-05-14T09:27:21.469Z,21.40
2023-05-14T09:29:48.538Z,21.30
2023-05-14T09:32:15.271Z,21.30
2023-05-14T09:34:42.264Z,21.30
2023-05-14T09:37:10.059Z,21.30
2023-05-14T09:39:37.802Z,21.40
2023-05-14T09:42:05.308Z,21.50
2023-05-14T09:44:32.049Z,21.70
2023-05-14T09:46:59.189Z,21.80
2023-05-14T09:49:26.068Z,21.80
2023-05-14T09:51:52.809Z,21.90
2023-05-14T09:54:19.702Z,21.70
2023-05-14T09:56:46.445Z,21.60
2023-05-14T09:59:13.513Z,21.40
2023-05-14T10:01:43.186Z,21.20
2023-05-14T10:04:11.187Z,21.20
2023-05-14T10:06:39.431Z,21.20
2023-05-14T10:09:12.411Z,21.30
2023-05-14T10:11:47.342Z,21.20
2023-05-14T10:14:20.605Z,21.10
2023-05-14T10:16:49.808Z,20.80
2023-05-14T10:19:18.413Z,20.70
2023-05-14T10:21:52.211Z,20.60
2023-05-14T10:24:20.338Z,20.70
2023-05-14T10:26:47.656Z,20.60
2023-05-14T10:29:14.442Z,20.60
2023-05-14T10:31:55.309Z,20.40
2023-05-14T10:34:33.549Z,20.30
2023-05-14T10:37:15.600Z,20.30
2023-05-14T10:39:42.402Z,20.20
2023-05-14T10:42:13.265Z,20.20
2023-05-14T10:45:10.752Z,20.00
2023-05-14T10:47:47.048Z,20.00
2023-05-14T10:50:17.673Z,19.90
2023-05-14T10:52:46.249Z,19.90
2023-05-14T10:55:15.071Z,20.00
2023-05-14T10:57:44.443Z,19.90
2023-05-14T11:00:13.304Z,19.90
2023-05-14T11:02:41.994Z,20.00
2023-05-14T11:05:10.992Z,20.10
2023-05-14T11:07:39.953Z,20.10
2023-05-14T11:10:12.042Z,20.10
2023-05-14T11:12:40.936Z,20.20
2023-05-14T11:15:10.372Z,20.20
2023-05-14T11:17:38.689Z,20.20
2023-05-14T11:20:06.610Z,20.20
2023-05-14T11:22:34.455Z,20.20
2023-05-14T11:25:01.246Z,20.10
2023-05-14T11:27:28.061Z,20.10
2023-05-14T11:29:55.974Z,20.00
2023-05-14T11:32:22.940Z,19.90
2023-05-14T11:34:49.806Z,19.90
2023-05-14T11:37:17.196Z,20.00
2023-05-14T11:39:52.161Z,20.00
2023-05-14T11:42:19.943Z,20.20
2023-05-14T11:44:49.000Z,20.30
2023-05-14T11:47:17.261Z,20.70
2023-05-14T11:49:44.394Z,21.10
2023-05-14T11:52:14.213Z,21.20
2023-05-14T11:54:42.674Z,21.20
2023-05-14T11:57:16.241Z,21.10
2023-05-14T11:59:43.574Z,21.20
2023-05-14T12:02:14.650Z,21.10
2023-05-14T12:04:42.790Z,20.90
2023-05-14T12:07:11.654Z,20.70
2023-05-14T12:09:49.796Z,20.70
2023-05-14T12:12:22.558Z,20.60
2023-05-14T12:14:50.719Z,20.50
2023-05-14T12:17:18.857Z,20.50
2023-05-14T12:19:49.194Z,20.60
2023-05-14T12:22:18.615Z,20.60
2023-05-14T12:24:54.944Z,20.60
2023-05-14T12:27:28.554Z,20.70
2023-05-14T12:30:19.259Z,20.70
2023-05-14T12:32:51.878Z,20.80
2023-05-14T12:35:19.121Z,21.00
2023-05-14T12:37:46.003Z,21.10
2023-05-14T12:40:12.879Z,21.20
2023-05-14T12:42:39.788Z,21.40
2023-05-14T12:45:08.506Z,21.50
2023-05-14T12:47:36.331Z,21.70
2023-05-14T12:50:03.634Z,21.90
2023-05-14T12:52:37.456Z,21.80
2023-05-14T12:55:09.846Z,21.90
2023-05-14T12:57:38.778Z,21.90
2023-05-14T13:00:07.876Z,21.90
2023-05-14T13:02:42.577Z,22.00
2023-05-14T13:05:11.161Z,21.90
2023-05-14T13:07:38.446Z,21.90
2023-05-14T13:10:05.962Z,21.80
2023-05-14T13:12:32.935Z,21.80
2023-05-14T13:14:59.873Z,21.70
2023-05-14T13:17:26.780Z,21.60
2023-05-14T13:19:53.706Z,21.50
2023-05-14T13:22:20.518Z,21.40
2023-05-14T13:24:47.190Z,21.20
2023-05-14T13:27:13.940Z,21.10
2023-05-14T13:29:41.433Z,21.00
2023-05-14T13:32:08.900Z,21.00
2023-05-14T13:34:36.210Z,21.10
2023-05-14T13:37:04.009Z,21.40
2023-05-14T13:39:30.871Z,22.00
2023-05-14T13:41:57.652Z,22.20
2023-05-14T13:44:24.618Z,22.20
2023-05-14T13:46:51.515Z,22.10
2023-05-14T13:49:18.454Z,21.80
2023-05-14T13:51:45.300Z,21.60
2023-05-14T13:54:12.087Z,21.40
2023-05-14T13:56:38.782Z,21.20
2023-05-14T13:59:05.936Z,20.90
2023-05-14T14:01:32.852Z,20.80
2023-05-14T14:03:59.719Z,20.80
2023-05-14T14:06:29.600Z,20.70
2023-05-14T14:08:56.400Z,20.70
2023-05-14T14:11:23.405Z,20.60
2023-05-14T14:13:50.102Z,20.60
2023-05-14T14:16:16.945Z,20.60
2023-05-14T14:18:43.802Z,20.60
2023-05-14T14:21:10.920Z,20.60
2023-05-14T14:23:37.852Z,20.60
2023-05-14T14:26:04.592Z,20.50
2023-05-14T14:28:31.363Z,20.60
2023-05-14T14:30:58.198Z,20.60
2023-05-14T14:33:25.299Z,20.60
2023-05-14T14:35:52.869Z,20.60
2023-05-14T14:38:19.728Z,20.60
2023-05-14T14:40:46.834Z,20.70
2023-05-14T14:43:13.547Z,20.70
2023-05-14T14:45:40.413Z,20.80
2023-05-14T14:48:39.926Z,20.90
2023-05-14T14:51:07.685Z,20.90
2023-05-14T14:53:35.595Z,21.10
2023-05-14T14:56:02.460Z,21.10
2023-05-14T14:58:29.359Z,21.20
2023-05-14T15:00:57.397Z,21.30
2023-05-14T15:03:25.298Z,21.40
2023-05-14T15:05:53.555Z,21.50
2023-05-14T15:08:22.658Z,21.80
2023-05-14T15:10:49.422Z,21.90
2023-05-14T15:13:16.125Z,22.50
2023-05-14T15:15:42.952Z,23.30
2023-05-14T15:18:10.199Z,23.60
2023-05-14T15:21:15.030Z,23.60
2023-05-14T15:23:41.685Z,23.40
2023-05-14T15:26:08.409Z,23.60
2023-05-14T15:28:35.110Z,23.70
2023-05-14T15:31:02.551Z,23.60
2023-05-14T15:33:29.369Z,23.80
2023-05-14T15:35:56.076Z,24.00
2023-05-14T15:38:22.766Z,23.70
2023-05-14T15:40:50.826Z,23.40
2023-05-14T15:43:17.606Z,23.50
2023-05-14T15:45:45.716Z,23.40
2023-05-14T15:48:12.382Z,23.40
2023-05-14T15:50:39.130Z,23.40
2023-05-14T15:53:05.917Z,23.30
2023-05-14T15:55:32.664Z,23.40
2023-05-14T15:57:59.365Z,23.40
2023-05-14T16:00:26.379Z,23.20
2023-05-14T16:02:53.461Z,23.10
2023-05-14T16:05:20.277Z,23.10
2023-05-14T16:07:47.122Z,23.10
2023-05-14T16:10:14.169Z,22.80
2023-05-14T16:12:40.874Z,22.50
2023-05-14T16:15:08.228Z,22.50
2023-05-14T16:17:35.265Z,22.40
2023-05-14T16:20:02.215Z,22.30
2023-05-14T16:22:36.021Z,22.30
2023-05-14T16:25:04.463Z,22.20
2023-05-14T16:27:31.667Z,22.00
2023-05-14T16:29:58.374Z,21.90
2023-05-14T16:32:25.388Z,21.80
2023-05-14T16:34:52.281Z,21.90
2023-05-14T16:37:22.051Z,21.90
2023-05-14T16:39:49.034Z,21.70
2023-05-14T16:42:15.753Z,21.40
2023-05-14T16:44:42.524Z,21.30
2023-05-14T16:47:09.247Z,21.30
2023-05-14T16:49:35.990Z,21.30
2023-05-14T16:52:02.772Z,21.30
2023-05-14T16:54:29.926Z,21.30
2023-05-14T16:56:56.696Z,21.20
2023-05-14T16:59:23.504Z,21.10
2023-05-14T17:01:50.375Z,21.00
2023-05-14T17:04:17.906Z,21.10
2023-05-14T17:06:46.178Z,21.30
2023-05-14T17:09:12.925Z,21.30
2023-05-14T17:11:39.632Z,21.30
2023-05-14T17:14:06.443Z,21.30
2023-05-14T17:16:33.311Z,21.20
2023-05-14T17:19:00.076Z,21.20
2023-05-14T17:21:26.885Z,21.20
2023-05-14T17:23:53.694Z,21.20
2023-05-14T17:26:21.195Z,21.10
2023-05-14T17:28:48.002Z,21.10
2023-05-14T17:31:14.854Z,21.20
2023-05-14T17:33:41.805Z,21.10
2023-05-14T17:36:08.820Z,21.10
2023-05-14T17:38:35.769Z,21.00
2023-05-14T17:41:02.546Z,20.90
2023-05-14T17:43:29.340Z,20.70
2023-05-14T17:45:56.302Z,20.70
2023-05-14T17:48:23.981Z,20.60
2023-05-14T17:50:54.364Z,20.50
2023-05-14T17:53:21.377Z,20.40
2023-05-14T17:55:50.153Z,20.40
2023-05-14T17:58:16.973Z,20.30
2023-05-14T18:00:44.058Z,20.30
2023-05-14T18:03:11.283Z,20.20
2023-05-14T18:05:38.239Z,20.10
2023-05-14T18:08:05.209Z,20.00
2023-05-14T18:10:32.013Z,20.00
2023-05-14T18:12:58.819Z,19.90
2023-05-14T18:15:27.220Z,19.80
2023-05-14T18:17:54.429Z,19.70
2023-05-14T18:20:21.391Z,19.60
2023-05-14T18:22:48.272Z,19.50
2023-05-14T18:25:15.609Z,19.40
2023-05-14T18:27:45.611Z,19.40
2023-05-14T18:30:14.447Z,19.30
2023-05-14T18:32:43.631Z,19.30
2023-05-14T18:35:10.854Z,19.20
2023-05-14T18:37:37.760Z,19.10
2023-05-14T18:40:06.880Z,19.10
2023-05-14T18:42:34.335Z,19.10
2023-05-14T18:45:01.659Z,19.10
2023-05-14T18:47:28.467Z,19.00
2023-05-14T18:49:57.698Z,19.00
2023-05-14T18:52:24.770Z,18.90
2023-05-14T18:54:51.555Z,18.90
2023-05-14T18:57:18.335Z,18.80
2023-05-14T18:59:45.078Z,18.70
2023-05-14T19:02:11.888Z,18.70
2023-05-14T19:04:51.138Z,18.60
2023-05-14T19:07:19.260Z,18.50
2023-05-14T19:09:46.210Z,18.40
2023-05-14T19:12:13.316Z,18.30
2023-05-14T19:14:40.047Z,18.30
2023-05-14T19:17:06.805Z,18.20
2023-05-14T19:19:33.895Z,18.10
2023-05-14T19:22:00.691Z,17.90
2023-05-14T19:24:27.396Z,17.90
2023-05-14T19:26:54.575Z,17.70
2023-05-14T19:29:21.381Z,17.60
2023-05-14T19:31:48.326Z,17.50
2023-05-14T19:34:15.107Z,17.40
2023-05-14T19:36:42.181Z,17.40
2023-05-14T19:39:08.939Z,17.30
2023-05-14T19:41:35.708Z,17.20
2023-05-14T19:44:02.383Z,17.10
2023-05-14T19:46:29.190Z,17.10
2023-05-14T19:48:55.952Z,16.90
2023-05-14T19:51:22.712Z,16.90
2023-05-14T19:53:49.714Z,16.80
2023-05-14T19:56:16.709Z,16.70
2023-05-14T19:58:44.285Z,16.70
2023-05-14T20:01:11.996Z,16.60
2023-05-14T20:03:39.019Z,16.50
2023-05-14T20:06:07.088Z,16.40
2023-05-14T20:08:33.852Z,16.30
2023-05-14T20:11:00.794Z,16.10
2023-05-14T20:13:27.672Z,16.00
2023-05-14T20:15:55.175Z,15.80
2023-05-14T20:18:22.174Z,15.70
2023-05-14T20:20:49.052Z,15.70
2023-05-14T20:23:15.964Z,15.70
2023-05-14T20:25:43.076Z,15.60
2023-05-14T20:28:10.414Z,15.50
2023-05-14T20:30:37.349Z,15.40
2023-05-14T20:33:04.225Z,15.40
2023-05-14T20:35:31.132Z,15.30
2023-05-14T20:37:57.970Z,15.20
2023-05-14T20:40:25.278Z,15.20
2023-05-14T20:42:52.232Z,15.20
2023-05-14T20:45:19.043Z,15.10
2023-05-14T20:47:45.823Z,14.90
2023-05-14T20:50:13.730Z,14.90
2023-05-14T20:52:44.267Z,14.90
2023-05-14T20:55:11.124Z,14.90
2023-05-14T20:57:37.979Z,14.80
2023-05-14T21:00:08.495Z,14.80
2023-05-14T21:02:35.340Z,14.90
2023-05-14T21:05:02.359Z,14.90
2023-05-14T21:07:29.161Z,14.90
2023-05-14T21:09:55.873Z,14.90
2023-05-14T21:12:22.652Z,15.00
2023-05-14T21:14:49.389Z,15.00
2023-05-14T21:17:16.121Z,15.00
2023-05-14T21:19:42.844Z,15.00
2023-05-14T21:22:09.521Z,15.10
2023-05-14T21:24:36.228Z,15.10
2023-05-14T21:27:02.926Z,15.10
2023-05-14T21:29:29.638Z,15.10
2023-05-14T21:31:56.377Z,15.10
2023-05-14T21:34:23.168Z,15.10
2023-05-14T21:36:49.971Z,15.00
2023-05-14T21:39:16.675Z,15.00
2023-05-14T21:41:43.430Z,14.90
2023-05-14T21:44:10.240Z,14.90
2023-05-14T21:46:37.003Z,14.80
2023-05-14T21:49:03.774Z,14.60
2023-05-14T21:51:31.313Z,14.50
2023-05-14T21:53:58.053Z,14.40
2023-05-14T21:56:24.774Z,14.30
2023-05-14T21:58:51.542Z,14.20
2023-05-14T22:01:18.213Z,14.20
2023-05-14T22:03:45.036Z,14.10
2023-05-14T22:06:11.788Z,14.00
2023-05-14T22:08:38.556Z,13.90
2023-05-14T22:11:05.326Z,13.80
2023-05-14T22:13:32.114Z,13.70
2023-05-14T22:16:09.211Z,13.60
2023-05-14T22:18:40.095Z,13.60
2023-05-14T22:21:06.787Z,13.50
2023-05-14T22:23:33.516Z,13.40
2023-05-14T22:26:00.367Z,13.40
2023-05-14T22:28:27.198Z,13.40
2023-05-14T22:30:54.033Z,13.40
2023-05-14T22:33:20.859Z,13.30
2023-05-14T22:35:47.597Z,13.30
2023-05-14T22:38:14.293Z,13.40
2023-05-14T22:40:40.972Z,13.50
2023-05-14T22:43:07.737Z,13.50
2023-05-14T22:45:34.532Z,13.50
2023-05-14T22:48:01.395Z,13.50
2023-05-14T22:50:28.110Z,13.50
2023-05-14T22:52:54.932Z,13.50
2023-05-14T22:55:21.685Z,13.40
2023-05-14T22:57:48.451Z,13.40
2023-05-14T23:00:15.854Z,13.30
2023-05-14T23:02:42.722Z,13.30
2023-05-14T23:05:09.835Z,13.30
2023-05-14T23:07:36.891Z,13.30
2023-05-14T23:10:04.027Z,13.30
2023-05-14T23:12:30.722Z,13.30
2023-05-14T23:14:59.116Z,13.30
2023-05-14T23:17:26.307Z,13.30
2023-05-14T23:19:53.374Z,13.30
2023-05-14T23:22:20.331Z,13.30
2023-05-14T23:24:47.126Z,13.20
2023-05-14T23:27:13.872Z,13.20
2023-05-14T23:29:40.689Z,13.20
2023-05-14T23:32:08.367Z,13.30
2023-05-14T23:34:35.408Z,13.40
2023-05-14T23:37:02.304Z,13.40
2023-05-14T23:39:29.165Z,13.40
2023-05-14T23:41:55.883Z,13.40
2023-05-14T23:44:22.616Z,13.50
2023-05-14T23:46:49.481Z,13.50
2023-05-14T23:49:16.277Z,13.40
2023-05-14T23:51:43.052Z,13.40
2023-05-14T23:54:09.742Z,13.30
2023-05-14T23:56:36.526Z,13.30
2023-05-14T23:59:03.674Z,13.20
